Kanyo Maru — JG5144 — position and weather

sailwx.info

Track history (hours):
 
Tides and Currents Weather Stations Pressure Air Temp Water Temp Dewpoint Dewpoint Depression Visibility Wind Speed Wind Dir Waves Ship Positions

Kanyo Maru

Last reported at 2018-Feb-21 02:43 UTC. Time now 2018-Feb-22 23:00 UTC.
Position N 34°55' E 139°43'.

Length 115 m; draft 5.3 m.

Type: Cargo ship. MMSI: 431300018.

Date/timePositionNaut miles runAvg speedWind from/ knotsBaromVisibWave heightAir tempDewpointWater temp
2018-Feb-21 02:43N 34°55' E 139°43'311.3
2018-Feb-21 02:27N 34°58' E 139°42'512.2
2018-Feb-21 02:00N 35°04' E 139°43'612.1
2018-Feb-21 01:30N 35°10' E 139°45'612.5
2018-Feb-21 01:00N 35°16' E 139°46'612.8
2018-Feb-21 00:31N 35°21' E 139°42'611.8
2018-Feb-21 00:00N 35°26' E 139°46'612.1
2018-Feb-20 23:30N 35°31' E 139°51'5 9.8
2018-Feb-20 23:01N 35°36' E 139°52'0 0.2
2018-Feb-20 22:29N 35°36' E 139°52'0 0.0
2018-Feb-20 21:59N 35°36' E 139°52'0 0.0
2018-Feb-20 21:29N 35°36' E 139°52'0 0.1
2018-Feb-20 20:59N 35°36' E 139°52'0 0.0
2018-Feb-20 18:56N 35°36' E 139°52'0 0.0
2018-Feb-20 18:29N 35°36' E 139°52'0 0.0
2018-Feb-20 17:59N 35°36' E 139°52'0 0.0
2018-Feb-20 15:08N 35°36' E 139°52'0 0.0
2018-Feb-20 14:59N 35°36' E 139°52'0 0.1
2018-Feb-20 14:29N 35°36' E 139°52'0 0.2
2018-Feb-20 13:56N 35°36' E 139°52'0 0.0
2018-Feb-20 13:29N 35°36' E 139°52'0 0.1
2018-Feb-20 12:59N 35°36' E 139°52'0 0.0
2018-Feb-20 12:29N 35°36' E 139°52'0 0.0
2018-Feb-20 11:47N 35°36' E 139°52'0 0.3
2018-Feb-20 11:30N 35°36' E 139°52'2 4.2
2018-Feb-20 11:00N 35°37' E 139°50'0 0.1
2018-Feb-20 10:28N 35°37' E 139°50'0 0.0
2018-Feb-20 09:43N 35°37' E 139°50'0 0.0
2018-Feb-20 09:22N 35°37' E 139°50'0 0.0
2018-Feb-20 08:49N 35°37' E 139°50'0 0.0
2018-Feb-20 08:25N 35°37' E 139°50'0 0.0
2018-Feb-20 06:25N 35°37' E 139°50'0 0.0
2018-Feb-20 05:55N 35°37' E 139°50'0 0.0
2018-Feb-20 04:07N 35°37' E 139°50'0 0.0
2018-Feb-20 03:49N 35°37' E 139°50'0 0.0
2018-Feb-20 03:28N 35°37' E 139°50'1 2.2
2018-Feb-20 03:00N 35°36' E 139°50'510.4
2018-Feb-20 02:30N 35°31' E 139°52'510.1
2018-Feb-20 02:00N 35°27' E 139°49'510.5
2018-Feb-20 01:31N 35°23' E 139°45'5 9.3
2018-Feb-20 01:00N 35°18' E 139°45'510.2
2018-Feb-20 00:30N 35°13' E 139°47'510.8
2018-Feb-20 00:00N 35°08' E 139°46'511.1
2018-Feb-19 23:31N 35°02' E 139°45'510.6
2018-Feb-19 23:00N 34°57' E 139°44'610.4
2018-Feb-19 22:25N 34°53' E 139°49'10 9.6
2018-Feb-19 21:24N 34°54' E 140°01'510.1
2018-Feb-19 20:55N 34°57' E 140°06'  
2018-Feb-15 03:53N 34°52' E 139°50'611.9
2018-Feb-15 03:22N 34°56' E 139°43'411.6
2018-Feb-15 03:00N 35°00' E 139°42'612.8
2018-Feb-15 02:30N 35°06' E 139°44'612.9
2018-Feb-15 02:00N 35°13' E 139°46'612.2
2018-Feb-15 01:30N 35°18' E 139°44'612.0
2018-Feb-15 01:00N 35°24' E 139°43'612.4
2018-Feb-15 00:30N 35°29' E 139°48'3 5.9
2018-Feb-15 00:00N 35°32' E 139°45'0 0.4
2018-Feb-14 23:30N 35°31' E 139°45'0 0.0
2018-Feb-14 23:00N 35°32' E 139°45'0 0.0
2018-Feb-14 22:30N 35°32' E 139°45'0 0.0
2018-Feb-14 22:00N 35°32' E 139°45'0 0.0
2018-Feb-14 21:30N 35°32' E 139°45'0 0.0
2018-Feb-14 21:00N 35°32' E 139°45'0 0.0
2018-Feb-14 20:30N 35°32' E 139°45'0 0.0
2018-Feb-14 20:00N 35°32' E 139°45'0 0.0
2018-Feb-14 19:30N 35°32' E 139°45'0 0.0
2018-Feb-14 19:00N 35°31' E 139°45'0 0.0
2018-Feb-14 18:30N 35°32' E 139°45'0 0.0
2018-Feb-14 18:00N 35°32' E 139°45'0 0.0
2018-Feb-14 17:30N 35°31' E 139°45'0 0.0
2018-Feb-14 17:00N 35°32' E 139°45'0 0.0
2018-Feb-14 16:30N 35°32' E 139°45'0 0.0
2018-Feb-14 16:00N 35°31' E 139°45'0 0.0
2018-Feb-14 15:30N 35°32' E 139°45'0 0.0
2018-Feb-14 15:00N 35°32' E 139°45'0 0.0
2018-Feb-14 14:30N 35°31' E 139°45'0 0.0
2018-Feb-14 14:00N 35°32' E 139°45'0 0.0
2018-Feb-14 13:30N 35°32' E 139°45'0 0.0
2018-Feb-14 13:00N 35°32' E 139°45'0 0.0
2018-Feb-14 12:30N 35°32' E 139°45'0 0.0
2018-Feb-14 12:00N 35°32' E 139°45'0 0.0
2018-Feb-14 11:30N 35°32' E 139°45'0 0.0
2018-Feb-14 11:00N 35°32' E 139°45'0 0.0
2018-Feb-14 10:30N 35°32' E 139°45'0 0.0
2018-Feb-14 10:00N 35°32' E 139°45'0 0.0
2018-Feb-14 09:30N 35°32' E 139°45'0 0.0
2018-Feb-14 09:00N 35°32' E 139°45'0 0.0
2018-Feb-14 08:30N 35°32' E 139°45'0 0.0
2018-Feb-14 08:00N 35°32' E 139°45'0 0.0
2018-Feb-14 07:30N 35°32' E 139°45'0 0.0
2018-Feb-14 07:00N 35°32' E 139°45'0 0.0
2018-Feb-14 06:30N 35°32' E 139°45'0 0.0
2018-Feb-14 06:00N 35°32' E 139°45'0 0.0
2018-Feb-14 05:30N 35°32' E 139°45'0 0.0
2018-Feb-14 05:00N 35°32' E 139°45'0 0.0
2018-Feb-14 04:27N 35°32' E 139°45'0 0.0
2018-Feb-14 04:00N 35°32' E 139°45'0 0.0
2018-Feb-14 03:30N 35°32' E 139°45'0 0.0
2018-Feb-14 03:00N 35°32' E 139°45'0 0.0
2018-Feb-14 02:30N 35°31' E 139°45'0 0.0
2018-Feb-14 02:00N 35°32' E 139°45'0 0.0
2018-Feb-14 01:27N 35°31' E 139°45'0 0.0
2018-Feb-14 00:57N 35°31' E 139°45'0 0.0
2018-Feb-14 00:30N 35°32' E 139°45'0 0.2
2018-Feb-14 00:00N 35°32' E 139°45'1 2.3
2018-Feb-13 23:30N 35°30' E 139°46'4 7.2
2018-Feb-13 23:00N 35°28' E 139°42'3 6.9
2018-Feb-13 22:30N 35°27' E 139°46'3 6.3
2018-Feb-13 22:00N 35°29' E 139°50'510.7
2018-Feb-13 21:30N 35°31' E 139°55'5 9.2
2018-Feb-13 21:00N 35°34' E 140°00'0 0.1
2018-Feb-13 20:25N 35°34' E 140°00'0 0.0
2018-Feb-13 19:55N 35°34' E 140°00'0 0.0
2018-Feb-13 19:25N 35°34' E 140°00'0 0.0
2018-Feb-13 18:58N 35°34' E 140°00'0 0.0
2018-Feb-13 18:25N 35°34' E 140°00'0 0.0
2018-Feb-13 17:58N 35°34' E 140°00'0 0.0
2018-Feb-13 17:19N 35°34' E 140°00'0 0.1
2018-Feb-13 16:55N 35°34' E 140°00'0 0.0
2018-Feb-13 16:25N 35°34' E 140°00'0 0.0
2018-Feb-13 15:55N 35°34' E 140°00'0 0.0
2018-Feb-13 15:25N 35°34' E 140°00'0 0.0
2018-Feb-13 14:58N 35°34' E 140°00'0 0.0
2018-Feb-13 14:28N 35°34' E 140°00'0 0.0
2018-Feb-13 13:55N 35°34' E 140°00'0 0.0
2018-Feb-13 13:25N 35°34' E 140°00'0 0.0
2018-Feb-13 12:58N 35°34' E 140°00'0 0.0
2018-Feb-13 12:25N 35°34' E 140°00'0 0.0
2018-Feb-13 11:58N 35°34' E 140°00'0 0.0
2018-Feb-13 11:28N 35°34' E 140°00'0 0.0
2018-Feb-13 10:55N 35°34' E 140°00'0 0.0
2018-Feb-13 10:28N 35°34' E 140°00'0 0.0
2018-Feb-13 09:58N 35°34' E 140°00'0 0.0
2018-Feb-13 09:25N 35°34' E 140°00'0 0.3
2018-Feb-13 08:58N 35°34' E 140°00'0 0.2
2018-Feb-13 08:28N 35°34' E 140°00'0 0.0
2018-Feb-13 07:55N 35°34' E 140°00'0 0.0
2018-Feb-13 07:19N 35°34' E 140°00'0 0.0
2018-Feb-13 06:49N 35°34' E 140°00'0 0.0
2018-Feb-13 06:22N 35°34' E 140°00'0 0.1
2018-Feb-13 05:58N 35°34' E 140°00'0 0.0
2018-Feb-13 05:30N 35°34' E 140°00'4 8.5
2018-Feb-13 05:00N 35°36' E 140°05'1 2.0
2018-Feb-13 04:28N 35°37' E 140°05'0 0.0
2018-Feb-13 03:58N 35°37' E 140°05'0 0.0
2018-Feb-13 03:28N 35°37' E 140°05'0 0.0
2018-Feb-13 02:58N 35°37' E 140°05'0 0.0
2018-Feb-13 02:28N 35°37' E 140°05'0 0.0
2018-Feb-13 01:58N 35°37' E 140°05'0 0.0
2018-Feb-13 01:28N 35°37' E 140°05'0 0.0
2018-Feb-13 00:58N 35°37' E 140°05'0 0.0
2018-Feb-13 00:28N 35°37' E 140°05'0 0.0
2018-Feb-12 23:58N 35°37' E 140°05'0 0.0
2018-Feb-12 23:25N 35°37' E 140°05'0 0.0
2018-Feb-12 22:58N 35°37' E 140°05'0 0.0
2018-Feb-12 22:28N 35°37' E 140°05'0 0.0
2018-Feb-12 21:58N 35°37' E 140°05'0 0.0
2018-Feb-12 21:28N 35°37' E 140°05'0 0.0
2018-Feb-12 20:58N 35°37' E 140°05'0 0.0
2018-Feb-12 20:28N 35°37' E 140°05'0 0.0
2018-Feb-12 19:58N 35°37' E 140°05'0 0.0
2018-Feb-12 19:28N 35°37' E 140°05'0 0.0
2018-Feb-12 18:58N 35°37' E 140°05'0 0.0
2018-Feb-12 18:28N 35°37' E 140°05'0 0.0
2018-Feb-12 17:58N 35°37' E 140°05'0 0.0
2018-Feb-12 17:28N 35°37' E 140°05'0 0.0
2018-Feb-12 16:58N 35°37' E 140°05'0 0.0
2018-Feb-12 16:28N 35°37' E 140°05'0 0.0
2018-Feb-12 15:58N 35°37' E 140°05'0 0.0
2018-Feb-12 15:16N 35°37' E 140°05'0 0.0
2018-Feb-12 14:58N 35°37' E 140°05'0 0.0
2018-Feb-12 14:28N 35°37' E 140°05'0 0.0
2018-Feb-12 13:58N 35°37' E 140°05'0 0.0
2018-Feb-12 13:28N 35°37' E 140°05'0 0.0
2018-Feb-12 12:58N 35°37' E 140°05'0 0.0
2018-Feb-12 12:28N 35°37' E 140°05'0 0.0
2018-Feb-12 11:58N 35°37' E 140°05'0 0.0
2018-Feb-12 11:28N 35°37' E 140°05'0 0.0
2018-Feb-12 10:58N 35°37' E 140°05'0 0.0
2018-Feb-12 10:28N 35°37' E 140°05'0 0.0
2018-Feb-12 09:58N 35°37' E 140°05'0 0.0
2018-Feb-12 09:28N 35°37' E 140°05'0 0.0
2018-Feb-12 08:58N 35°37' E 140°05'0 0.0
2018-Feb-12 08:28N 35°37' E 140°05'0 0.0
2018-Feb-12 07:58N 35°37' E 140°05'0 0.3
2018-Feb-12 07:30N 35°37' E 140°05'2 5.0
2018-Feb-12 07:00N 35°35' E 140°03'3 2.2
2018-Feb-12 05:42N 35°34' E 139°59'0 0.0
2018-Feb-12 05:18N 35°34' E 139°59'0 0.0
2018-Feb-12 04:48N 35°34' E 139°59'0 0.0
2018-Feb-12 04:18N 35°34' E 139°59'0 0.0
2018-Feb-12 04:00N 35°34' E 139°59'0 0.0
2018-Feb-12 03:30N 35°34' E 139°59'0 0.0
2018-Feb-12 03:00N 35°34' E 139°59'0 0.0
2018-Feb-12 02:18N 35°34' E 139°59'0 0.0
2018-Feb-12 02:00N 35°34' E 139°59'0 0.0
2018-Feb-12 01:30N 35°34' E 139°59'0 0.0
2018-Feb-12 01:00N 35°34' E 139°59'0 0.0
2018-Feb-12 00:30N 35°34' E 139°59'0 0.0
2018-Feb-12 00:00N 35°34' E 139°59'0 0.3
2018-Feb-11 23:30N 35°34' E 139°59'4 7.5
2018-Feb-11 23:00N 35°32' E 139°55'611.7
2018-Feb-11 22:30N 35°28' E 139°50'611.4
2018-Feb-11 22:01N 35°23' E 139°46'510.5
2018-Feb-11 21:30N 35°18' E 139°44'510.4
2018-Feb-11 21:00N 35°14' E 139°47'510.9
2018-Feb-11 20:30N 35°08' E 139°47'611.2
2018-Feb-11 20:00N 35°03' E 139°44'7 8.8
2018-Feb-11 19:11N 34°56' E 139°43'1 7.4
2018-Feb-11 19:00N 34°55' E 139°44'3 7.0
2018-Feb-11 18:31N 34°53' E 139°48'10 8.2
2018-Feb-11 17:21N 34°53' E 139°59'4 9.7
2018-Feb-11 16:59N 34°55' E 140°03'  
Track history (hours):
 
Tides and Currents Weather Stations Pressure Air Temp Water Temp Dewpoint Dewpoint Depression Visibility Wind Speed Wind Dir Waves Ship Positions

Kanyo Maru

Last reported at 2018-Feb-21 02:43 UTC. Time now 2018-Feb-22 23:00 UTC.
Position N 34°55' E 139°43'.

Length 115 m; draft 5.3 m.

Type: Cargo ship. MMSI: 431300018.

Date/timePositionNaut miles runAvg speedWind from/ knotsBaromVisibWave heightAir tempDewpointWater temp
2018-Feb-21 02:43N 34°55' E 139°43'311.3
2018-Feb-21 02:27N 34°58' E 139°42'512.2
2018-Feb-21 02:00N 35°04' E 139°43'612.1
2018-Feb-21 01:30N 35°10' E 139°45'612.5
2018-Feb-21 01:00N 35°16' E 139°46'612.8
2018-Feb-21 00:31N 35°21' E 139°42'611.8
2018-Feb-21 00:00N 35°26' E 139°46'612.1
2018-Feb-20 23:30N 35°31' E 139°51'5 9.8
2018-Feb-20 23:01N 35°36' E 139°52'0 0.2
2018-Feb-20 22:29N 35°36' E 139°52'0 0.0
2018-Feb-20 21:59N 35°36' E 139°52'0 0.0
2018-Feb-20 21:29N 35°36' E 139°52'0 0.1
2018-Feb-20 20:59N 35°36' E 139°52'0 0.0
2018-Feb-20 18:56N 35°36' E 139°52'0 0.0
2018-Feb-20 18:29N 35°36' E 139°52'0 0.0
2018-Feb-20 17:59N 35°36' E 139°52'0 0.0
2018-Feb-20 15:08N 35°36' E 139°52'0 0.0
2018-Feb-20 14:59N 35°36' E 139°52'0 0.1
2018-Feb-20 14:29N 35°36' E 139°52'0 0.2
2018-Feb-20 13:56N 35°36' E 139°52'0 0.0
2018-Feb-20 13:29N 35°36' E 139°52'0 0.1
2018-Feb-20 12:59N 35°36' E 139°52'0 0.0
2018-Feb-20 12:29N 35°36' E 139°52'0 0.0
2018-Feb-20 11:47N 35°36' E 139°52'0 0.3
2018-Feb-20 11:30N 35°36' E 139°52'2 4.2
2018-Feb-20 11:00N 35°37' E 139°50'0 0.1
2018-Feb-20 10:28N 35°37' E 139°50'0 0.0
2018-Feb-20 09:43N 35°37' E 139°50'0 0.0
2018-Feb-20 09:22N 35°37' E 139°50'0 0.0
2018-Feb-20 08:49N 35°37' E 139°50'0 0.0
2018-Feb-20 08:25N 35°37' E 139°50'0 0.0
2018-Feb-20 06:25N 35°37' E 139°50'0 0.0
2018-Feb-20 05:55N 35°37' E 139°50'0 0.0
2018-Feb-20 04:07N 35°37' E 139°50'0 0.0
2018-Feb-20 03:49N 35°37' E 139°50'0 0.0
2018-Feb-20 03:28N 35°37' E 139°50'1 2.2
2018-Feb-20 03:00N 35°36' E 139°50'510.4
2018-Feb-20 02:30N 35°31' E 139°52'510.1
2018-Feb-20 02:00N 35°27' E 139°49'510.5
2018-Feb-20 01:31N 35°23' E 139°45'5 9.3
2018-Feb-20 01:00N 35°18' E 139°45'510.2
2018-Feb-20 00:30N 35°13' E 139°47'510.8
2018-Feb-20 00:00N 35°08' E 139°46'511.1
2018-Feb-19 23:31N 35°02' E 139°45'510.6
2018-Feb-19 23:00N 34°57' E 139°44'610.4
2018-Feb-19 22:25N 34°53' E 139°49'10 9.6
2018-Feb-19 21:24N 34°54' E 140°01'510.1
2018-Feb-19 20:55N 34°57' E 140°06'  
2018-Feb-15 03:53N 34°52' E 139°50'611.9
2018-Feb-15 03:22N 34°56' E 139°43'411.6
2018-Feb-15 03:00N 35°00' E 139°42'612.8
2018-Feb-15 02:30N 35°06' E 139°44'612.9
2018-Feb-15 02:00N 35°13' E 139°46'612.2
2018-Feb-15 01:30N 35°18' E 139°44'612.0
2018-Feb-15 01:00N 35°24' E 139°43'612.4
2018-Feb-15 00:30N 35°29' E 139°48'3 5.9
2018-Feb-15 00:00N 35°32' E 139°45'0 0.4
2018-Feb-14 23:30N 35°31' E 139°45'0 0.0
2018-Feb-14 23:00N 35°32' E 139°45'0 0.0
2018-Feb-14 22:30N 35°32' E 139°45'0 0.0
2018-Feb-14 22:00N 35°32' E 139°45'0 0.0
2018-Feb-14 21:30N 35°32' E 139°45'0 0.0
2018-Feb-14 21:00N 35°32' E 139°45'0 0.0
2018-Feb-14 20:30N 35°32' E 139°45'0 0.0
2018-Feb-14 20:00N 35°32' E 139°45'0 0.0
2018-Feb-14 19:30N 35°32' E 139°45'0 0.0
2018-Feb-14 19:00N 35°31' E 139°45'0 0.0
2018-Feb-14 18:30N 35°32' E 139°45'0 0.0
2018-Feb-14 18:00N 35°32' E 139°45'0 0.0
2018-Feb-14 17:30N 35°31' E 139°45'0 0.0
2018-Feb-14 17:00N 35°32' E 139°45'0 0.0
2018-Feb-14 16:30N 35°32' E 139°45'0 0.0
2018-Feb-14 16:00N 35°31' E 139°45'0 0.0
2018-Feb-14 15:30N 35°32' E 139°45'0 0.0
2018-Feb-14 15:00N 35°32' E 139°45'0 0.0
2018-Feb-14 14:30N 35°31' E 139°45'0 0.0
2018-Feb-14 14:00N 35°32' E 139°45'0 0.0
2018-Feb-14 13:30N 35°32' E 139°45'0 0.0
2018-Feb-14 13:00N 35°32' E 139°45'0 0.0
2018-Feb-14 12:30N 35°32' E 139°45'0 0.0
2018-Feb-14 12:00N 35°32' E 139°45'0 0.0
2018-Feb-14 11:30N 35°32' E 139°45'0 0.0
2018-Feb-14 11:00N 35°32' E 139°45'0 0.0
2018-Feb-14 10:30N 35°32' E 139°45'0 0.0
2018-Feb-14 10:00N 35°32' E 139°45'0 0.0
2018-Feb-14 09:30N 35°32' E 139°45'0 0.0
2018-Feb-14 09:00N 35°32' E 139°45'0 0.0
2018-Feb-14 08:30N 35°32' E 139°45'0 0.0
2018-Feb-14 08:00N 35°32' E 139°45'0 0.0
2018-Feb-14 07:30N 35°32' E 139°45'0 0.0
2018-Feb-14 07:00N 35°32' E 139°45'0 0.0
2018-Feb-14 06:30N 35°32' E 139°45'0 0.0
2018-Feb-14 06:00N 35°32' E 139°45'0 0.0
2018-Feb-14 05:30N 35°32' E 139°45'0 0.0
2018-Feb-14 05:00N 35°32' E 139°45'0 0.0
2018-Feb-14 04:27N 35°32' E 139°45'0 0.0
2018-Feb-14 04:00N 35°32' E 139°45'0 0.0
2018-Feb-14 03:30N 35°32' E 139°45'0 0.0
2018-Feb-14 03:00N 35°32' E 139°45'0 0.0
2018-Feb-14 02:30N 35°31' E 139°45'0 0.0
2018-Feb-14 02:00N 35°32' E 139°45'0 0.0
2018-Feb-14 01:27N 35°31' E 139°45'0 0.0
2018-Feb-14 00:57N 35°31' E 139°45'0 0.0
2018-Feb-14 00:30N 35°32' E 139°45'0 0.2
2018-Feb-14 00:00N 35°32' E 139°45'1 2.3
2018-Feb-13 23:30N 35°30' E 139°46'4 7.2
2018-Feb-13 23:00N 35°28' E 139°42'3 6.9
2018-Feb-13 22:30N 35°27' E 139°46'3 6.3
2018-Feb-13 22:00N 35°29' E 139°50'510.7
2018-Feb-13 21:30N 35°31' E 139°55'5 9.2
2018-Feb-13 21:00N 35°34' E 140°00'0 0.1
2018-Feb-13 20:25N 35°34' E 140°00'0 0.0
2018-Feb-13 19:55N 35°34' E 140°00'0 0.0
2018-Feb-13 19:25N 35°34' E 140°00'0 0.0
2018-Feb-13 18:58N 35°34' E 140°00'0 0.0
2018-Feb-13 18:25N 35°34' E 140°00'0 0.0
2018-Feb-13 17:58N 35°34' E 140°00'0 0.0
2018-Feb-13 17:19N 35°34' E 140°00'0 0.1
2018-Feb-13 16:55N 35°34' E 140°00'0 0.0
2018-Feb-13 16:25N 35°34' E 140°00'0 0.0
2018-Feb-13 15:55N 35°34' E 140°00'0 0.0
2018-Feb-13 15:25N 35°34' E 140°00'0 0.0
2018-Feb-13 14:58N 35°34' E 140°00'0 0.0
2018-Feb-13 14:28N 35°34' E 140°00'0 0.0
2018-Feb-13 13:55N 35°34' E 140°00'0 0.0
2018-Feb-13 13:25N 35°34' E 140°00'0 0.0
2018-Feb-13 12:58N 35°34' E 140°00'0 0.0
2018-Feb-13 12:25N 35°34' E 140°00'0 0.0
2018-Feb-13 11:58N 35°34' E 140°00'0 0.0
2018-Feb-13 11:28N 35°34' E 140°00'0 0.0
2018-Feb-13 10:55N 35°34' E 140°00'0 0.0
2018-Feb-13 10:28N 35°34' E 140°00'0 0.0
2018-Feb-13 09:58N 35°34' E 140°00'0 0.0
2018-Feb-13 09:25N 35°34' E 140°00'0 0.3
2018-Feb-13 08:58N 35°34' E 140°00'0 0.2
2018-Feb-13 08:28N 35°34' E 140°00'0 0.0
2018-Feb-13 07:55N 35°34' E 140°00'0 0.0
2018-Feb-13 07:19N 35°34' E 140°00'0 0.0
2018-Feb-13 06:49N 35°34' E 140°00'0 0.0
2018-Feb-13 06:22N 35°34' E 140°00'0 0.1
2018-Feb-13 05:58N 35°34' E 140°00'0 0.0
2018-Feb-13 05:30N 35°34' E 140°00'4 8.5
2018-Feb-13 05:00N 35°36' E 140°05'1 2.0
2018-Feb-13 04:28N 35°37' E 140°05'0 0.0
2018-Feb-13 03:58N 35°37' E 140°05'0 0.0
2018-Feb-13 03:28N 35°37' E 140°05'0 0.0
2018-Feb-13 02:58N 35°37' E 140°05'0 0.0
2018-Feb-13 02:28N 35°37' E 140°05'0 0.0
2018-Feb-13 01:58N 35°37' E 140°05'0 0.0
2018-Feb-13 01:28N 35°37' E 140°05'0 0.0
2018-Feb-13 00:58N 35°37' E 140°05'0 0.0
2018-Feb-13 00:28N 35°37' E 140°05'0 0.0
2018-Feb-12 23:58N 35°37' E 140°05'0 0.0
2018-Feb-12 23:25N 35°37' E 140°05'0 0.0
2018-Feb-12 22:58N 35°37' E 140°05'0 0.0
2018-Feb-12 22:28N 35°37' E 140°05'0 0.0
2018-Feb-12 21:58N 35°37' E 140°05'0 0.0
2018-Feb-12 21:28N 35°37' E 140°05'0 0.0
2018-Feb-12 20:58N 35°37' E 140°05'0 0.0
2018-Feb-12 20:28N 35°37' E 140°05'0 0.0
2018-Feb-12 19:58N 35°37' E 140°05'0 0.0
2018-Feb-12 19:28N 35°37' E 140°05'0 0.0
2018-Feb-12 18:58N 35°37' E 140°05'0 0.0
2018-Feb-12 18:28N 35°37' E 140°05'0 0.0
2018-Feb-12 17:58N 35°37' E 140°05'0 0.0
2018-Feb-12 17:28N 35°37' E 140°05'0 0.0
2018-Feb-12 16:58N 35°37' E 140°05'0 0.0
2018-Feb-12 16:28N 35°37' E 140°05'0 0.0
2018-Feb-12 15:58N 35°37' E 140°05'0 0.0
2018-Feb-12 15:16N 35°37' E 140°05'0 0.0
2018-Feb-12 14:58N 35°37' E 140°05'0 0.0
2018-Feb-12 14:28N 35°37' E 140°05'0 0.0
2018-Feb-12 13:58N 35°37' E 140°05'0 0.0
2018-Feb-12 13:28N 35°37' E 140°05'0 0.0
2018-Feb-12 12:58N 35°37' E 140°05'0 0.0
2018-Feb-12 12:28N 35°37' E 140°05'0 0.0
2018-Feb-12 11:58N 35°37' E 140°05'0 0.0
2018-Feb-12 11:28N 35°37' E 140°05'0 0.0
2018-Feb-12 10:58N 35°37' E 140°05'0 0.0
2018-Feb-12 10:28N 35°37' E 140°05'0 0.0
2018-Feb-12 09:58N 35°37' E 140°05'0 0.0
2018-Feb-12 09:28N 35°37' E 140°05'0 0.0
2018-Feb-12 08:58N 35°37' E 140°05'0 0.0
2018-Feb-12 08:28N 35°37' E 140°05'0 0.0
2018-Feb-12 07:58N 35°37' E 140°05'0 0.3
2018-Feb-12 07:30N 35°37' E 140°05'2 5.0
2018-Feb-12 07:00N 35°35' E 140°03'3 2.2
2018-Feb-12 05:42N 35°34' E 139°59'0 0.0
2018-Feb-12 05:18N 35°34' E 139°59'0 0.0
2018-Feb-12 04:48N 35°34' E 139°59'0 0.0
2018-Feb-12 04:18N 35°34' E 139°59'0 0.0
2018-Feb-12 04:00N 35°34' E 139°59'0 0.0
2018-Feb-12 03:30N 35°34' E 139°59'0 0.0
2018-Feb-12 03:00N 35°34' E 139°59'0 0.0
2018-Feb-12 02:18N 35°34' E 139°59'0 0.0
2018-Feb-12 02:00N 35°34' E 139°59'0 0.0
2018-Feb-12 01:30N 35°34' E 139°59'0 0.0
2018-Feb-12 01:00N 35°34' E 139°59'0 0.0
2018-Feb-12 00:30N 35°34' E 139°59'0 0.0
2018-Feb-12 00:00N 35°34' E 139°59'0 0.3
2018-Feb-11 23:30N 35°34' E 139°59'4 7.5
2018-Feb-11 23:00N 35°32' E 139°55'611.7
2018-Feb-11 22:30N 35°28' E 139°50'611.4
2018-Feb-11 22:01N 35°23' E 139°46'510.5
2018-Feb-11 21:30N 35°18' E 139°44'510.4
2018-Feb-11 21:00N 35°14' E 139°47'510.9
2018-Feb-11 20:30N 35°08' E 139°47'611.2
2018-Feb-11 20:00N 35°03' E 139°44'7 8.8
2018-Feb-11 19:11N 34°56' E 139°43'1 7.4
2018-Feb-11 19:00N 34°55' E 139°44'3 7.0
2018-Feb-11 18:31N 34°53' E 139°48'10 8.2
2018-Feb-11 17:21N 34°53' E 139°59'4 9.7
2018-Feb-11 16:59N 34°55' E 140°03'  

Dump ship's entire track history